Terminal Aerodrome Forecast
Issued by NWS Duluth, MN

Home | Current Version | Previous Version | Text Only | Print | Product List | Glossary On
Versions: 1 2 3 4 5 6 7 8 9 10 11 12 13 14 15 16
402
FTUS43 KDLH 252321
TAFINL
TAF
KINL 252321Z 2600/2624 26005KT P6SM SKC
     FM260600 VRB03KT P6SM VCSH BKN100
     FM261800 31010KT P6SM BKN070=

USA.gov is the U.S. government's official web portal to all federal, state and local government web resources and services.